This is the latest recevied weather packets stored in our database for station/object KY4EF. If no packets are shown the sender has not sent any weather packets the latest 10 day(s).
| Time | Temp. | Humidity | Pressure | Rain* | Wind** | Luminosity | Snow |
|---|---|---|---|---|---|---|---|
| 1777946879 | 13.89° C | 73% | 1014 hPa | 0 mm | - | 0 W/m² | - |
| 1777946574 | 13.89° C | 73% | 1013.6 hPa | 0 mm | - | 0 W/m² | - |
| 1777946272 | 14.44° C | 72% | 1013.8 hPa | 0 mm | - | 0 W/m² | - |
| 1777945968 | 14.44° C | 71% | 1013.5 hPa | 0 mm | - | 0 W/m² | - |
| 1777945666 | 15° C | 69% | 1013.6 hPa | 0 mm | - | 0 W/m² | - |
| 1777945363 | 15° C | 66% | 1013.8 hPa | 0 mm | - | 0 W/m² | - |
| 1777945059 | 15.56° C | 65% | 1013.6 hPa | 0 mm | - | 0 W/m² | - |
| 1777944757 | 15° C | 67% | 1013.5 hPa | 0 mm | - | 0 W/m² | - |
| 1777944455 | 15.56° C | 64% | 1013.6 hPa | 0 mm | - | 0 W/m² | - |
| 1777944152 | 15.56° C | 65% | 1013.5 hPa | 0 mm | - | 0 W/m² | - |
| 1777943847 | 15.56° C | 65% | 1013.2 hPa | 0 mm | - | 0 W/m² | - |
| 1777943545 | 16.11° C | 64% | 1013.4 hPa | 0 mm | - | 0 W/m² | - |
| 1777943240 | 16.67° C | 60% | 1013.1 hPa | 0 mm | - | 0 W/m² | - |
| 1777942937 | 16.67° C | 61% | 1013.2 hPa | 0 mm | - | 0 W/m² | - |
| 1777942633 | 17.22° C | 58% | 1013.1 hPa | 0 mm | - | 0 W/m² | - |
| 1777942331 | 17.22° C | 56% | 1013.2 hPa | 0 mm | - | 0 W/m² | - |
| 1777942028 | 17.78° C | 56% | 1013 hPa | 0 mm | - | 0 W/m² | - |
| 1777941724 | 17.78° C | 53% | 1013.1 hPa | 0 mm | - | 0 W/m² | - |
| 1777941421 | 18.33° C | 52% | 1012.9 hPa | 0 mm | - | 0 W/m² | - |
| 1777941119 | 18.33° C | 51% | 1012.8 hPa | 0 mm | - | 1 W/m² | - |
| 1777940815 | 18.33° C | 54% | 1012.8 hPa | 0 mm | - | 1 W/m² | - |
| 1777940513 | 18.89° C | 50% | 1012.9 hPa | 0 mm | - | 3 W/m² | - |
| 1777940209 | 18.89° C | 49% | 1012.7 hPa | 0 mm | - | 5 W/m² | - |
| 1777939907 | 18.89° C | 50% | 1012.9 hPa | 0 mm | - | 7 W/m² | - |
| 1777939604 | 20° C | 48% | 1012.7 hPa | 0 mm | - | 10 W/m² | - |
* Rain latest hour (hover to see other rain measurements)
** Current wind speed in m/s (hover to see current wind gust speed)